Time;durP1;ratioP1;P1;durP2;ratioP2;P2;SDS_P1;SDS_P2;PMS_P1;PMS_P2;Temp;Humidity;BMP_temperature;BMP_pressure;BME280_temperature;BME280_humidity;BME280_pressure;Samples;Min_cycle;Max_cycle;Signal;HPM_P1;HPM_P2
2021/07/21 00:00:41;;;;;;;6.85;4.20;;;20.20;65.20;;;;;;2474745;55;21009;-83
2021/07/21 00:03:08;;;;;;;8.50;4.95;;;20.20;65.10;;;;;;2266361;56;20971;-85
2021/07/21 00:05:36;;;;;;;9.95;4.37;;;20.20;65.20;;;;;;2225464;56;21133;-85
2021/07/21 00:08:02;;;;;;;6.97;4.03;;;20.10;65.20;;;;;;2235284;56;21556;-85
2021/07/21 00:10:30;;;;;;;8.40;5.00;;;20.10;65.30;;;;;;2227160;57;21419;-86
2021/07/21 00:15:55;;;;;;;6.30;4.03;;;20.00;65.40;;;;;;2457469;55;21031;-87
2021/07/21 00:18:34;;;;;;;7.35;4.15;;;20.00;65.60;;;;;;2437171;56;21939;-88
2021/07/21 00:21:00;;;;;;;6.97;3.72;;;20.00;65.60;;;;;;2229144;56;21802;-86
2021/07/21 00:23:27;;;;;;;7.07;4.30;;;19.90;65.50;;;;;;2469104;55;21015;-86
2021/07/21 00:25:54;;;;;;;6.70;4.20;;;20.00;65.70;;;;;;2470928;55;20958;-84
2021/07/21 00:28:20;;;;;;;10.20;3.87;;;19.90;65.70;;;;;;2402390;56;21007;-85
2021/07/21 00:30:47;;;;;;;7.03;4.28;;;19.90;65.70;;;;;;2418994;56;20956;-86
2021/07/21 00:33:14;;;;;;;7.47;4.68;;;19.80;65.70;;;;;;2209904;57;21583;-86
2021/07/21 00:35:42;;;;;;;6.62;4.47;;;19.80;65.70;;;;;;2439784;56;21086;-88
2021/07/21 00:38:09;;;;;;;6.15;3.65;;;19.80;65.70;;;;;;2244431;56;20962;-88
2021/07/21 00:40:35;;;;;;;6.60;3.72;;;19.70;65.70;;;;;;2257486;56;20949;-87
2021/07/21 00:43:01;;;;;;;8.13;4.03;;;19.70;65.70;;;;;;2254935;56;20962;-86
2021/07/21 00:45:28;;;;;;;8.15;4.68;;;19.70;65.70;;;;;;2269210;56;20984;-86
2021/07/21 00:47:54;;;;;;;6.60;4.10;;;19.60;65.70;;;;;;2455762;55;20978;-86
2021/07/21 00:50:20;;;;;;;7.50;4.68;;;19.60;65.80;;;;;;2480166;55;21032;-86
2021/07/21 00:52:47;;;;;;;7.93;4.12;;;19.60;65.80;;;;;;2465372;55;21052;-88
2021/07/21 00:55:14;;;;;;;7.25;4.75;;;19.60;65.80;;;;;;2250083;56;20963;-89
2021/07/21 00:57:41;;;;;;;7.90;4.60;;;19.60;65.90;;;;;;2461758;55;20987;-89
2021/07/21 01:00:19;;;;;;;8.70;4.43;;;19.50;65.80;;;;;;2245699;56;20982;-88
2021/07/21 01:02:47;;;;;;;8.80;4.72;;;19.50;65.70;;;;;;2490045;55;21024;-88
2021/07/21 01:05:15;;;;;;;7.50;4.50;;;19.40;66.00;;;;;;2469845;55;20971;-88
2021/07/21 01:07:44;;;;;;;6.75;4.18;;;19.40;66.10;;;;;;2459322;55;20963;-87
2021/07/21 01:10:11;;;;;;;7.18;4.40;;;19.40;66.10;;;;;;2415286;56;21018;-88
2021/07/21 01:12:40;;;;;;;6.32;4.12;;;19.40;66.10;;;;;;2436852;56;20986;-88
2021/07/21 01:15:16;;;;;;;7.43;4.40;;;19.30;66.00;;;;;;2225307;57;20984;-88
2021/07/21 01:17:57;;;;;;;7.12;4.70;;;19.30;65.90;;;;;;2450210;55;21028;-88
2021/07/21 01:20:53;;;;;;;7.28;4.30;;;19.20;66.00;;;;;;2463086;55;21258;-87
2021/07/21 01:23:40;;;;;;;8.23;4.55;;;19.20;65.90;;;;;;2483656;55;21093;-87
2021/07/21 01:26:09;;;;;;;7.43;4.68;;;19.20;66.10;;;;;;2481885;55;21021;-87
2021/07/21 01:28:35;;;;;;;6.30;3.95;;;19.20;66.30;;;;;;2259424;56;21809;-88
2021/07/21 01:31:02;;;;;;;7.30;4.62;;;19.10;66.30;;;;;;2460396;55;21027;-87
2021/07/21 01:33:28;;;;;;;7.10;4.47;;;19.10;66.50;;;;;;2248761;56;21636;-89
2021/07/21 01:36:34;;;;;;;6.78;4.30;;;19.10;66.60;;;;;;2460103;55;21085;-88
2021/07/21 01:39:03;;;;;;;7.78;4.55;;;19.00;66.50;;;;;;2267076;56;21012;-88
2021/07/21 01:41:33;;;;;;;6.95;4.50;;;19.00;66.60;;;;;;2459644;55;20995;-87
2021/07/21 01:44:05;;;;;;;6.75;4.03;;;19.00;66.80;;;;;;2437657;56;21018;-85
2021/07/21 01:46:32;;;;;;;7.12;4.68;;;19.00;66.70;;;;;;2449523;55;21077;-85
2021/07/21 01:48:59;;;;;;;6.97;4.07;;;19.00;66.80;;;;;;2432718;56;20972;-85
2021/07/21 01:51:25;;;;;;;6.93;4.47;;;19.00;66.90;;;;;;2425150;55;21027;-84
2021/07/21 01:53:56;;;;;;;7.53;4.57;;;18.90;66.80;;;;;;2184383;57;20999;-86
2021/07/21 01:56:22;;;;;;;9.95;5.15;;;18.90;66.80;;;;;;2463178;55;20953;-85
2021/07/21 01:58:51;;;;;;;7.70;5.00;;;18.90;66.80;;;;;;2261009;56;21008;-84
2021/07/21 02:01:18;;;;;;;7.53;4.55;;;18.90;66.90;;;;;;2250093;56;21059;-85
2021/07/21 02:03:44;;;;;;;7.32;4.43;;;18.90;66.80;;;;;;2460738;55;20959;-88
2021/07/21 02:06:10;;;;;;;7.72;4.60;;;18.80;66.80;;;;;;2250680;56;21015;-88
2021/07/21 02:08:36;;;;;;;6.57;4.22;;;18.80;66.80;;;;;;2459970;56;20996;-89
2021/07/21 02:11:03;;;;;;;7.65;4.80;;;18.80;66.90;;;;;;2463974;55;20958;-88
2021/07/21 02:13:29;;;;;;;9.48;4.87;;;18.80;67.00;;;;;;2487587;55;20996;-87
2021/07/21 02:15:56;;;;;;;8.50;5.18;;;18.70;67.00;;;;;;2252933;56;20985;-89
2021/07/21 02:18:22;;;;;;;6.30;4.18;;;18.70;67.10;;;;;;2490064;55;21398;-87
2021/07/21 02:20:48;;;;;;;7.62;4.28;;;18.70;67.10;;;;;;2263617;56;21293;-88
2021/07/21 02:23:15;;;;;;;7.12;4.30;;;18.70;67.20;;;;;;2461232;55;21839;-88
2021/07/21 02:25:41;;;;;;;7.90;4.87;;;18.70;67.30;;;;;;2461945;55;21034;-86
2021/07/21 02:28:08;;;;;;;8.20;4.90;;;18.60;67.20;;;;;;2240802;56;21941;-89
2021/07/21 02:30:35;;;;;;;7.62;4.05;;;18.60;67.20;;;;;;2250815;56;20983;-89
2021/07/21 02:33:54;;;;;;;13.73;4.65;;;18.60;67.20;;;;;;2461202;55;20975;-87
2021/07/21 02:36:20;;;;;;;6.82;3.97;;;18.50;66.80;;;;;;2248056;56;20999;-86
2021/07/21 02:38:47;;;;;;;7.10;4.32;;;18.60;67.30;;;;;;2252850;56;21106;-89
2021/07/21 02:41:13;;;;;;;7.32;4.32;;;18.50;67.10;;;;;;2253231;56;21076;-90
2021/07/21 02:43:39;;;;;;;7.78;4.50;;;18.50;67.20;;;;;;2224180;57;20955;-88
2021/07/21 02:46:06;;;;;;;8.20;4.90;;;18.50;67.30;;;;;;2218469;57;21037;-89
2021/07/21 02:48:32;;;;;;;7.12;4.62;;;18.40;67.30;;;;;;2242590;56;21035;-88
2021/07/21 02:51:07;;;;;;;8.73;4.57;;;18.40;67.30;;;;;;2254161;56;21070;-88
2021/07/21 02:53:34;;;;;;;6.97;4.05;;;18.40;67.40;;;;;;2450443;56;21061;-87
2021/07/21 02:56:11;;;;;;;7.18;4.57;;;18.40;67.40;;;;;;2395573;57;20987;-87
2021/07/21 02:58:51;;;;;;;7.62;4.20;;;18.40;67.40;;;;;;2449582;55;20959;-86
2021/07/21 03:01:19;;;;;;;6.93;4.20;;;18.40;67.30;;;;;;2221297;57;21106;-88
2021/07/21 03:03:45;;;;;;;6.35;4.00;;;18.40;67.50;;;;;;2412701;56;21916;-88
2021/07/21 03:06:12;;;;;;;6.40;4.07;;;18.30;67.50;;;;;;2201018;56;20990;-86
2021/07/21 03:08:38;;;;;;;7.60;4.87;;;18.30;67.50;;;;;;2228302;56;20946;-87
2021/07/21 03:11:04;;;;;;;8.13;5.05;;;18.30;67.50;;;;;;2454717;55;20980;-87
2021/07/21 03:13:39;;;;;;;7.12;4.32;;;18.30;67.50;;;;;;2427161;56;21089;-87
2021/07/21 03:16:05;;;;;;;8.02;4.30;;;18.20;67.30;;;;;;2211594;57;20961;-88
2021/07/21 03:18:31;;;;;;;6.70;3.87;;;18.20;67.50;;;;;;2418659;56;20980;-86
2021/07/21 03:20:58;;;;;;;7.57;4.03;;;18.20;67.50;;;;;;2447335;55;20971;-88
2021/07/21 03:23:25;;;;;;;7.55;4.20;;;18.20;67.50;;;;;;2472022;55;21007;-86
2021/07/21 03:25:52;;;;;;;7.68;4.62;;;18.20;67.70;;;;;;2233614;55;21451;-87
2021/07/21 03:28:19;;;;;;;7.80;4.55;;;18.10;67.60;;;;;;2242018;56;21022;-87
2021/07/21 03:30:45;;;;;;;8.20;5.05;;;18.20;67.80;;;;;;2213489;57;21006;-88
2021/07/21 03:33:12;;;;;;;8.75;4.40;;;18.10;67.70;;;;;;2422094;56;21056;-88
2021/07/21 03:35:38;;;;;;;7.55;4.25;;;18.10;67.70;;;;;;2215775;57;20902;-87
2021/07/21 03:38:04;;;;;;;8.13;4.50;;;18.10;67.80;;;;;;2457264;55;21026;-88
2021/07/21 03:40:31;;;;;;;7.10;4.50;;;18.00;67.70;;;;;;2461604;55;21569;-86
2021/07/21 03:43:00;;;;;;;7.03;4.40;;;18.00;67.70;;;;;;2477946;55;21494;-87
2021/07/21 03:45:28;;;;;;;8.02;4.70;;;18.00;67.80;;;;;;2250031;56;20959;-88
2021/07/21 03:47:54;;;;;;;7.60;4.75;;;18.00;67.90;;;;;;2437375;56;21140;-89
2021/07/21 03:50:23;;;;;;;7.82;4.75;;;18.00;67.90;;;;;;2214656;57;21008;-89
2021/07/21 03:52:50;;;;;;;7.37;4.25;;;18.00;67.90;;;;;;2427436;56;20993;-88
2021/07/21 03:55:18;;;;;;;7.32;4.50;;;18.00;68.30;;;;;;2210709;57;20908;-88
2021/07/21 03:57:45;;;;;;;7.90;5.22;;;17.90;67.90;;;;;;2426921;56;21108;-88
2021/07/21 04:00:14;;;;;;;7.75;4.55;;;18.00;68.10;;;;;;2215531;56;21023;-89
2021/07/21 04:02:45;;;;;;;7.93;4.93;;;17.90;68.00;;;;;;2453096;55;21011;-86
2021/07/21 04:05:15;;;;;;;8.27;4.95;;;18.00;68.10;;;;;;2426499;56;21101;-87
2021/07/21 04:07:42;;;;;;;7.60;4.18;;;17.90;68.20;;;;;;2417010;56;20982;-85
2021/07/21 04:10:09;;;;;;;6.00;3.40;;;18.00;68.40;;;;;;2242342;56;21119;-85
2021/07/21 04:12:35;;;;;;;6.60;4.03;;;17.90;68.30;;;;;;2417794;56;21201;-86
2021/07/21 04:15:01;;;;;;;7.72;4.15;;;17.90;68.30;;;;;;2209697;57;21506;-88
2021/07/21 04:17:30;;;;;;;7.35;4.47;;;17.90;68.30;;;;;;2436191;56;21000;-87
2021/07/21 04:19:57;;;;;;;8.75;5.00;;;17.90;68.30;;;;;;2208527;57;21823;-87
2021/07/21 04:22:24;;;;;;;9.30;4.82;;;17.90;68.30;;;;;;2441380;56;20962;-86
2021/07/21 04:24:50;;;;;;;7.72;4.40;;;17.90;68.30;;;;;;2440316;56;21069;-88
2021/07/21 04:27:16;;;;;;;8.82;4.70;;;17.90;68.30;;;;;;2230409;57;20978;-87
2021/07/21 04:29:45;;;;;;;8.05;5.05;;;17.90;68.40;;;;;;2232538;57;21034;-86
2021/07/21 04:32:13;;;;;;;8.35;4.50;;;17.80;68.40;;;;;;2458865;55;21034;-88
2021/07/21 04:34:42;;;;;;;8.50;5.07;;;17.80;68.60;;;;;;2438817;56;21353;-85
2021/07/21 04:37:08;;;;;;;8.13;4.55;;;17.80;68.70;;;;;;2225683;57;21417;-84
2021/07/21 04:39:34;;;;;;;7.05;4.35;;;17.80;68.70;;;;;;2434584;56;21041;-86
2021/07/21 04:42:01;;;;;;;8.50;4.87;;;17.80;68.70;;;;;;2409773;57;21010;-84
2021/07/21 04:44:27;;;;;;;8.50;5.05;;;17.90;68.90;;;;;;2442394;55;20949;-85
2021/07/21 04:46:54;;;;;;;7.03;4.45;;;17.90;68.90;;;;;;2490239;55;21841;-85
2021/07/21 04:49:21;;;;;;;8.57;5.20;;;17.90;68.90;;;;;;2234046;56;20981;-85
2021/07/21 04:51:48;;;;;;;9.60;5.87;;;17.90;69.00;;;;;;2249601;56;21078;-87
2021/07/21 04:54:14;;;;;;;8.00;5.20;;;17.90;69.10;;;;;;2245538;56;20999;-87
2021/07/21 04:56:40;;;;;;;7.87;4.87;;;17.90;69.20;;;;;;2460942;55;21031;-85
2021/07/21 04:59:06;;;;;;;11.60;5.87;;;17.90;69.20;;;;;;2249896;56;20982;-87
2021/07/21 05:01:33;;;;;;;6.35;4.30;;;17.90;69.20;;;;;;2244550;56;20976;-86
2021/07/21 05:03:59;;;;;;;7.10;4.47;;;17.90;69.30;;;;;;2490121;55;20980;-86
2021/07/21 05:06:27;;;;;;;6.22;3.87;;;18.00;69.50;;;;;;2463194;55;21031;-88
2021/07/21 05:08:55;;;;;;;8.18;4.62;;;18.00;69.50;;;;;;2458905;55;20925;-87
2021/07/21 05:11:22;;;;;;;8.05;4.05;;;18.10;69.60;;;;;;2461370;55;20979;-89
2021/07/21 05:13:48;;;;;;;7.60;4.50;;;18.10;69.70;;;;;;2252986;56;21015;-86
2021/07/21 05:16:15;;;;;;;7.57;4.72;;;18.10;69.70;;;;;;2487124;55;21044;-87
2021/07/21 05:18:42;;;;;;;8.50;5.60;;;18.10;69.80;;;;;;2494166;55;20942;-87
2021/07/21 05:21:08;;;;;;;9.50;5.28;;;18.20;69.90;;;;;;2270871;55;20955;-87
2021/07/21 05:23:36;;;;;;;12.13;6.72;;;18.20;69.90;;;;;;2240115;56;21099;-84
2021/07/21 05:26:02;;;;;;;8.43;5.53;;;18.20;69.90;;;;;;2468494;55;21044;-86
2021/07/21 05:28:28;;;;;;;8.35;5.15;;;18.30;70.00;;;;;;2478027;55;20940;-85
2021/07/21 05:30:54;;;;;;;14.38;5.82;;;18.30;70.00;;;;;;2491588;55;21078;-88
2021/07/21 05:33:21;;;;;;;7.75;4.85;;;18.40;70.10;;;;;;2476896;55;21939;-87
2021/07/21 05:35:49;;;;;;;10.98;6.12;;;18.40;70.10;;;;;;2490057;55;22166;-85
2021/07/21 05:38:15;;;;;;;11.27;6.37;;;18.40;70.20;;;;;;2466313;55;20987;-85
2021/07/21 05:40:42;;;;;;;9.32;5.85;;;18.40;70.20;;;;;;2269140;56;20996;-87
2021/07/21 05:43:08;;;;;;;9.00;5.60;;;18.50;70.30;;;;;;2258692;56;20971;-87
2021/07/21 05:45:35;;;;;;;9.50;5.20;;;18.50;70.30;;;;;;2464189;55;20952;-87
2021/07/21 05:48:01;;;;;;;8.95;5.43;;;18.50;70.30;;;;;;2493746;55;21613;-87
2021/07/21 05:50:28;;;;;;;8.95;5.37;;;18.60;70.30;;;;;;2261202;56;20988;-87
2021/07/21 05:52:54;;;;;;;8.98;5.18;;;18.60;70.30;;;;;;2253039;56;20979;-88
2021/07/21 05:55:20;;;;;;;8.63;5.35;;;18.60;70.20;;;;;;2462739;55;21648;-86
2021/07/21 05:57:47;;;;;;;8.18;5.28;;;18.70;70.40;;;;;;2462095;55;20979;-87
2021/07/21 06:00:13;;;;;;;8.05;5.15;;;18.70;70.40;;;;;;2462594;55;20963;-88
2021/07/21 06:02:40;;;;;;;7.80;5.22;;;18.80;70.50;;;;;;2247135;56;21019;-86
2021/07/21 06:05:06;;;;;;;7.85;5.20;;;18.80;70.50;;;;;;2247612;56;21841;-88
2021/07/21 06:07:33;;;;;;;7.28;4.93;;;18.80;70.50;;;;;;2269298;56;20940;-88
2021/07/21 06:10:00;;;;;;;8.68;5.30;;;18.90;70.60;;;;;;2257652;56;21040;-87
2021/07/21 06:12:26;;;;;;;10.90;6.12;;;18.90;70.70;;;;;;2250727;56;21018;-87
2021/07/21 06:14:52;;;;;;;9.02;5.40;;;19.00;70.70;;;;;;2450949;56;21069;-88
2021/07/21 06:17:19;;;;;;;8.00;5.32;;;19.00;70.70;;;;;;2214298;57;20955;-88
2021/07/21 06:19:46;;;;;;;9.30;5.40;;;19.10;70.80;;;;;;2211762;57;21019;-85
2021/07/21 06:22:14;;;;;;;9.00;5.75;;;19.10;70.80;;;;;;2198734;56;20976;-88
2021/07/21 06:24:41;;;;;;;9.10;5.75;;;19.20;70.90;;;;;;2251251;56;21078;-87
2021/07/21 06:27:07;;;;;;;10.00;5.72;;;19.20;70.80;;;;;;2232702;57;21086;-88
2021/07/21 06:29:33;;;;;;;8.00;4.72;;;19.30;71.00;;;;;;2230013;57;20977;-86
2021/07/21 06:32:00;;;;;;;9.60;4.93;;;19.30;71.00;;;;;;2443412;56;21178;-88
2021/07/21 06:34:26;;;;;;;9.75;5.82;;;19.40;71.00;;;;;;2231457;57;21022;-89
2021/07/21 06:36:52;;;;;;;10.02;6.20;;;19.50;71.10;;;;;;2436989;56;20976;-86
2021/07/21 06:39:19;;;;;;;10.55;6.40;;;19.50;71.20;;;;;;2417923;56;20981;-87
2021/07/21 06:41:45;;;;;;;10.60;5.90;;;19.60;71.40;;;;;;2417695;56;20997;-87
2021/07/21 06:44:11;;;;;;;9.43;6.25;;;19.60;71.30;;;;;;2214061;57;20944;-86
2021/07/21 06:46:38;;;;;;;9.85;6.35;;;19.70;71.30;;;;;;2195549;57;21036;-86
2021/07/21 06:49:04;;;;;;;8.95;5.97;;;19.80;71.40;;;;;;2442572;56;21074;-86
2021/07/21 06:51:30;;;;;;;10.55;6.65;;;19.90;71.40;;;;;;2234266;57;21018;-85
2021/07/21 06:53:56;;;;;;;9.93;6.12;;;19.90;71.10;;;;;;2442704;56;20947;-86
2021/07/21 06:56:23;;;;;;;10.60;6.12;;;20.00;71.20;;;;;;2438827;55;21002;-86
2021/07/21 06:58:51;;;;;;;8.27;5.30;;;20.00;71.20;;;;;;2255341;55;21022;-86
2021/07/21 07:01:19;;;;;;;10.38;5.87;;;20.10;71.20;;;;;;2462538;55;20956;-86
2021/07/21 07:03:48;;;;;;;10.00;6.18;;;20.10;71.20;;;;;;2463154;56;20983;-86
2021/07/21 07:06:16;;;;;;;10.65;6.85;;;20.30;71.20;;;;;;2462042;55;21004;-87
2021/07/21 07:08:42;;;;;;;9.35;5.72;;;20.30;71.10;;;;;;2463834;55;20936;-87
2021/07/21 07:11:09;;;;;;;8.82;5.90;;;20.40;71.20;;;;;;2483855;55;20988;-86
2021/07/21 07:13:36;;;;;;;8.80;5.62;;;20.50;71.40;;;;;;2262928;56;21011;-85
2021/07/21 07:16:04;;;;;;;9.27;5.60;;;20.60;71.50;;;;;;2431955;55;21079;-85
2021/07/21 07:18:31;;;;;;;9.50;5.95;;;20.60;71.60;;;;;;2250263;56;21077;-86
2021/07/21 07:20:57;;;;;;;9.45;5.60;;;20.70;71.80;;;;;;2462543;55;20970;-88
2021/07/21 07:23:24;;;;;;;8.77;5.62;;;20.90;72.10;;;;;;2250019;56;21008;-86
2021/07/21 07:25:50;;;;;;;9.68;6.18;;;21.00;72.10;;;;;;2245349;56;21086;-86
2021/07/21 07:28:16;;;;;;;8.35;5.20;;;21.10;72.20;;;;;;2485619;55;21930;-85
2021/07/21 07:30:42;;;;;;;8.45;5.40;;;21.20;71.90;;;;;;2256728;56;21029;-88
2021/07/21 07:33:09;;;;;;;9.10;5.65;;;21.40;71.90;;;;;;2462117;55;20998;-89
2021/07/21 07:35:37;;;;;;;7.65;5.18;;;21.50;71.70;;;;;;2460122;55;22030;-88
2021/07/21 07:38:03;;;;;;;8.43;5.37;;;21.60;71.60;;;;;;2462134;56;21036;-89
2021/07/21 07:40:30;;;;;;;10.55;6.32;;;21.70;71.70;;;;;;2235769;56;21893;-89
2021/07/21 07:42:56;;;;;;;9.27;5.70;;;21.80;71.50;;;;;;2208888;57;21032;-88
2021/07/21 07:45:22;;;;;;;8.38;5.40;;;21.90;71.90;;;;;;2198499;57;21042;-89
2021/07/21 07:47:49;;;;;;;8.88;5.80;;;21.90;70.90;;;;;;2209568;56;20962;-87
2021/07/21 07:50:15;;;;;;;12.20;6.45;;;22.10;71.00;;;;;;2462530;55;21784;-89
2021/07/21 07:52:42;;;;;;;8.55;5.07;;;22.10;70.70;;;;;;2445376;56;22034;-89
2021/07/21 07:55:09;;;;;;;8.95;5.47;;;22.20;70.50;;;;;;2463780;55;21481;-89
2021/07/21 07:57:35;;;;;;;7.90;5.28;;;22.30;70.30;;;;;;2247025;56;20987;-88
2021/07/21 08:00:04;;;;;;;7.82;5.05;;;22.30;70.10;;;;;;2257818;55;20956;-89
2021/07/21 08:02:31;;;;;;;8.50;5.32;;;22.40;70.30;;;;;;2468825;55;21035;-90
2021/07/21 08:04:57;;;;;;;8.32;5.43;;;22.50;70.30;;;;;;2245479;56;20963;-84
2021/07/21 08:07:25;;;;;;;9.02;5.22;;;22.50;70.00;;;;;;2462473;55;20971;-85
2021/07/21 08:09:52;;;;;;;8.65;5.40;;;22.60;69.90;;;;;;2244849;56;20986;-86
2021/07/21 08:12:19;;;;;;;8.35;4.87;;;22.70;70.60;;;;;;2460765;55;20948;-84
2021/07/21 08:14:45;;;;;;;9.40;5.30;;;22.70;69.80;;;;;;2460450;55;21079;-85
2021/07/21 08:17:11;;;;;;;11.75;5.87;;;22.80;69.80;;;;;;2245258;56;21006;-87
2021/07/21 08:19:39;;;;;;;9.80;6.35;;;22.90;69.60;;;;;;2245582;56;21018;-86
2021/07/21 08:22:06;;;;;;;10.07;6.12;;;23.00;69.20;;;;;;2474594;55;21028;-84
2021/07/21 08:24:32;;;;;;;9.13;5.90;;;23.00;68.90;;;;;;2263842;56;20986;-85
2021/07/21 08:26:59;;;;;;;8.82;5.82;;;23.00;69.00;;;;;;2245122;56;21079;-87
2021/07/21 08:29:35;;;;;;;8.75;5.60;;;23.10;69.10;;;;;;2488384;55;21067;-84
2021/07/21 08:32:01;;;;;;;8.48;5.15;;;23.20;68.90;;;;;;2488829;55;21032;-85
2021/07/21 08:34:28;;;;;;;9.93;6.12;;;23.30;68.80;;;;;;2476556;55;20985;-87
2021/07/21 08:36:57;;;;;;;9.30;5.85;;;23.30;68.90;;;;;;2265745;56;20960;-84
2021/07/21 08:39:24;;;;;;;8.63;5.32;;;23.40;68.80;;;;;;2263333;56;21032;-85
2021/07/21 08:41:50;;;;;;;9.80;5.68;;;23.50;68.90;;;;;;2476442;55;20952;-86
2021/07/21 08:44:17;;;;;;;9.13;5.78;;;23.50;68.50;;;;;;2259182;55;20998;-84
2021/07/21 08:46:44;;;;;;;9.23;5.47;;;23.60;68.40;;;;;;2245042;56;21007;-87
2021/07/21 08:49:13;;;;;;;10.68;6.12;;;23.70;68.20;;;;;;2263937;55;20996;-86
2021/07/21 08:51:40;;;;;;;8.80;5.37;;;23.80;67.70;;;;;;2485053;55;21019;-84
2021/07/21 08:54:07;;;;;;;8.20;5.30;;;23.80;67.90;;;;;;2218453;56;21045;-87
2021/07/21 08:56:34;;;;;;;8.63;4.90;;;23.90;67.70;;;;;;2191445;57;21018;-85
2021/07/21 08:59:00;;;;;;;9.85;5.50;;;23.90;67.60;;;;;;2385636;57;21056;-87
2021/07/21 09:01:26;;;;;;;10.60;5.40;;;23.90;67.50;;;;;;2207811;57;20992;-87
2021/07/21 09:03:53;;;;;;;10.85;5.43;;;24.00;67.60;;;;;;2217948;56;20985;-87
2021/07/21 09:06:19;;;;;;;9.80;5.35;;;24.10;67.80;;;;;;2455128;56;20998;-86
2021/07/21 09:08:45;;;;;;;8.75;5.18;;;24.20;68.10;;;;;;2441172;56;21060;-87
2021/07/21 09:11:12;;;;;;;7.68;4.97;;;24.30;68.20;;;;;;2228633;57;21973;-85
2021/07/21 09:13:38;;;;;;;8.65;5.50;;;24.40;68.90;;;;;;2441663;56;20974;-87
2021/07/21 09:16:06;;;;;;;8.07;5.22;;;24.40;68.00;;;;;;2440766;56;21118;-86
2021/07/21 09:18:49;;;;;;;8.23;5.03;;;24.50;67.90;;;;;;2229765;57;20966;-88
2021/07/21 09:21:16;;;;;;;9.05;4.20;;;24.60;66.60;;;;;;2223230;57;21850;-86
2021/07/21 09:23:45;;;;;;;8.27;4.40;;;24.70;67.60;;;;;;2450417;56;21031;-87
2021/07/21 09:26:17;;;;;;;6.97;4.35;;;24.80;67.30;;;;;;2461570;55;21023;-89
2021/07/21 09:28:43;;;;;;;7.70;4.07;;;24.90;66.70;;;;;;2436329;56;21020;-89
2021/07/21 09:31:14;;;;;;;6.93;4.47;;;25.00;67.00;;;;;;2460250;55;21094;-86
2021/07/21 09:33:43;;;;;;;8.18;5.05;;;25.00;66.30;;;;;;2260009;55;20995;-88
2021/07/21 09:36:16;;;;;;;7.70;4.55;;;25.10;66.20;;;;;;2275875;55;21033;-85
2021/07/21 09:38:44;;;;;;;7.07;4.62;;;25.20;65.60;;;;;;2471220;55;21041;-84
2021/07/21 09:41:11;;;;;;;7.15;4.85;;;25.20;66.10;;;;;;2464911;55;21095;-88
2021/07/21 09:43:37;;;;;;;8.85;4.97;;;25.20;65.80;;;;;;2250914;56;21040;-88
2021/07/21 09:46:05;;;;;;;7.10;4.20;;;25.30;65.80;;;;;;2490600;55;21037;-86
2021/07/21 09:48:45;;;;;;;7.85;4.47;;;25.30;65.90;;;;;;2257614;56;21031;-85
2021/07/21 09:51:23;;;;;;;6.85;4.28;;;25.40;65.30;;;;;;2231294;55;21003;-88
2021/07/21 09:53:50;;;;;;;6.47;4.00;;;25.50;66.00;;;;;;2494487;55;21027;-85
2021/07/21 09:56:30;;;;;;;5.87;3.95;;;25.50;65.90;;;;;;2262294;56;21039;-84
2021/07/21 09:59:17;;;;;;;5.97;3.85;;;25.60;64.90;;;;;;2248128;55;21781;-88
2021/07/21 10:01:44;;;;;;;6.75;4.22;;;25.70;64.40;;;;;;2244915;55;20943;-87
2021/07/21 10:04:10;;;;;;;7.53;4.55;;;25.70;65.60;;;;;;2269293;55;20986;-87
2021/07/21 10:06:40;;;;;;;7.07;4.05;;;25.80;65.40;;;;;;2263140;56;20978;-89
2021/07/21 10:09:06;;;;;;;6.95;4.12;;;25.90;65.10;;;;;;2248327;56;21451;-90
2021/07/21 10:11:35;;;;;;;7.15;4.75;;;25.90;65.20;;;;;;2267704;55;21031;-86
2021/07/21 10:14:12;;;;;;;6.03;3.95;;;26.00;65.00;;;;;;2268093;55;20966;-88
2021/07/21 10:16:46;;;;;;;7.75;4.55;;;26.10;64.20;;;;;;2266836;55;20952;-88
2021/07/21 10:19:23;;;;;;;6.60;4.22;;;26.10;64.50;;;;;;2267836;55;20962;-88
2021/07/21 10:22:00;;;;;;;7.45;4.20;;;26.20;64.00;;;;;;2274095;55;21446;-85
2021/07/21 10:24:40;;;;;;;5.97;3.92;;;26.30;64.20;;;;;;2262940;56;21027;-87
2021/07/21 10:27:06;;;;;;;6.40;4.12;;;26.30;64.80;;;;;;2473363;55;21021;-87
2021/07/21 10:29:33;;;;;;;7.68;5.07;;;26.40;64.90;;;;;;2249615;56;21040;-86
2021/07/21 10:31:59;;;;;;;6.87;4.43;;;26.40;64.50;;;;;;2473410;55;20983;-85
2021/07/21 10:34:26;;;;;;;6.93;4.68;;;26.50;64.40;;;;;;2486229;55;21004;-86
2021/07/21 10:36:52;;;;;;;8.18;4.80;;;26.60;64.20;;;;;;2492167;55;21007;-86
2021/07/21 10:39:23;;;;;;;6.80;4.60;;;26.60;63.70;;;;;;2489889;55;21087;-84
2021/07/21 10:41:49;;;;;;;7.10;4.70;;;26.70;63.40;;;;;;2465930;55;20947;-85
2021/07/21 10:44:17;;;;;;;6.47;4.53;;;26.70;63.60;;;;;;2226108;56;21045;-87
2021/07/21 10:46:45;;;;;;;6.37;4.20;;;26.80;63.30;;;;;;2213283;57;20986;-86
2021/07/21 10:49:19;;;;;;;7.68;4.95;;;26.80;63.20;;;;;;2416327;57;21021;-89
2021/07/21 10:55:46;;;;;;;11.25;4.35;;;27.00;63.40;;;;;;2473050;55;20965;-86
2021/07/21 11:01:28;;;;;;;8.25;4.85;;;27.20;63.20;;;;;;2459730;55;21517;-86
2021/07/21 11:04:01;;;;;;;5.87;4.20;;;27.20;61.30;;;;;;2462376;55;21054;-83
2021/07/21 11:06:41;;;;;;;6.82;4.20;;;27.30;62.00;;;;;;2453912;55;21016;-85
2021/07/21 11:09:15;;;;;;;5.87;3.92;;;27.30;62.10;;;;;;2492769;55;21047;-83
2021/07/21 11:11:42;;;;;;;7.15;4.40;;;27.40;61.60;;;;;;2454903;56;21205;-85
2021/07/21 11:14:09;;;;;;;7.22;4.78;;;27.40;61.80;;;;;;2236865;56;20959;-88
2021/07/21 11:17:08;;;;;;;6.25;4.25;;;27.50;61.70;;;;;;2245792;56;21014;-87
2021/07/21 11:20:07;;;;;;;7.78;4.80;;;27.50;60.40;;;;;;2222983;56;20968;-87
2021/07/21 11:22:36;;;;;;;6.25;4.37;;;27.60;60.20;;;;;;2441316;56;20986;-86
2021/07/21 11:25:18;;;;;;;7.57;4.03;;;27.70;61.90;;;;;;2435938;56;20987;-86
2021/07/21 11:27:49;;;;;;;7.07;4.45;;;27.80;60.20;;;;;;2444257;56;21002;-85
2021/07/21 11:30:41;;;;;;;7.15;4.95;;;27.80;61.60;;;;;;2227420;56;20995;-85
2021/07/21 11:33:49;;;;;;;6.20;4.22;;;27.90;59.90;;;;;;2227000;55;21021;-87
2021/07/21 11:37:55;;;;;;;6.57;4.15;;;28.00;60.10;;;;;;2230332;56;24896;-88
2021/07/21 11:40:22;;;;;;;6.12;3.83;;;28.10;60.30;;;;;;2243476;56;20974;-89
2021/07/21 11:42:48;;;;;;;7.07;4.32;;;28.10;61.60;;;;;;2215560;57;21020;-87
2021/07/21 11:45:18;;;;;;;7.55;4.32;;;28.20;61.20;;;;;;2452888;55;21162;-86
2021/07/21 11:47:56;;;;;;;7.45;4.62;;;28.20;60.50;;;;;;2240121;57;20958;-88
2021/07/21 11:50:29;;;;;;;6.28;4.30;;;28.30;60.10;;;;;;2443871;55;20931;-85
2021/07/21 11:52:57;;;;;;;6.40;4.22;;;28.30;60.00;;;;;;2236838;56;21023;-86
2021/07/21 11:55:25;;;;;;;7.25;4.18;;;28.40;60.40;;;;;;2236147;57;20950;-85
2021/07/21 11:57:52;;;;;;;8.13;4.60;;;28.40;60.00;;;;;;2236712;57;20998;-85
2021/07/21 12:00:22;;;;;;;7.05;4.30;;;28.50;60.00;;;;;;2431709;55;20956;-84
2021/07/21 12:02:58;;;;;;;6.15;4.40;;;28.50;59.50;;;;;;2238504;57;20991;-85
2021/07/21 12:05:27;;;;;;;8.32;5.00;;;28.60;58.80;;;;;;2245306;56;21027;-85
2021/07/21 12:07:53;;;;;;;6.47;4.62;;;28.60;59.60;;;;;;2233492;56;20942;-86
2021/07/21 12:10:20;;;;;;;6.78;4.50;;;28.70;59.60;;;;;;2225887;57;21563;-84
2021/07/21 12:12:46;;;;;;;6.97;4.55;;;28.70;59.60;;;;;;2229930;56;20980;-85
2021/07/21 12:15:16;;;;;;;8.00;4.65;;;28.80;59.60;;;;;;2433721;55;20966;-85
2021/07/21 12:17:43;;;;;;;7.47;4.70;;;28.80;59.20;;;;;;2233710;56;21004;-85
2021/07/21 12:20:12;;;;;;;6.78;4.10;;;28.90;59.80;;;;;;2468292;55;21007;-85
2021/07/21 12:22:43;;;;;;;6.65;4.35;;;29.00;59.60;;;;;;2249395;56;21495;-84
2021/07/21 12:25:13;;;;;;;5.72;4.28;;;29.00;59.40;;;;;;2474743;55;21109;-86
2021/07/21 12:27:44;;;;;;;7.15;4.87;;;29.10;59.20;;;;;;2225993;56;21896;-85
2021/07/21 12:30:15;;;;;;;6.45;4.50;;;29.10;58.50;;;;;;2215669;57;20952;-85
2021/07/21 12:32:41;;;;;;;6.25;4.43;;;29.20;58.80;;;;;;2440027;56;20948;-86
2021/07/21 12:35:10;;;;;;;5.90;4.15;;;29.20;59.00;;;;;;2460741;56;21015;-85
2021/07/21 12:37:44;;;;;;;6.37;4.78;;;29.30;58.80;;;;;;2208868;57;21329;-85
2021/07/21 12:40:21;;;;;;;8.20;4.50;;;29.30;57.50;;;;;;2413257;56;21034;-84
2021/07/21 12:42:50;;;;;;;6.35;4.40;;;29.30;58.30;;;;;;2447283;56;20954;-85
2021/07/21 12:45:17;;;;;;;7.30;4.57;;;29.40;58.40;;;;;;2420821;56;20963;-86
2021/07/21 12:47:47;;;;;;;8.05;4.78;;;29.40;58.20;;;;;;2220446;56;20969;-84
2021/07/21 12:50:27;;;;;;;6.57;4.57;;;29.40;58.20;;;;;;2416191;56;21477;-85
2021/07/21 12:52:59;;;;;;;6.90;4.12;;;29.50;57.80;;;;;;2219343;56;21051;-86
2021/07/21 12:55:39;;;;;;;7.47;4.50;;;29.50;57.50;;;;;;2231341;56;20960;-86
2021/07/21 12:58:17;;;;;;;7.55;4.75;;;29.60;57.30;;;;;;2394363;56;21050;-87
2021/07/21 13:00:55;;;;;;;8.93;5.05;;;29.60;56.90;;;;;;2413371;56;21715;-86
2021/07/21 13:03:23;;;;;;;6.90;4.32;;;29.70;56.70;;;;;;2198111;56;21605;-86
2021/07/21 13:05:52;;;;;;;5.97;4.20;;;29.70;57.60;;;;;;2413980;56;21429;-86